Terminal Aerodrome Forecast
Issued by NWS Sioux Falls, SD

Home | Current Version | Previous Version | Text Only | Print | Product List | Glossary Off
Versions: 1 2 3 4 5 6 7 8 9 10 11 12

000
FTUS43 KFSD 061120
TAFHON
TAF
KHON 061120Z 0612/0712 13013KT P6SM VCSH SCT020 BKN045
     FM061400 14011G20KT P6SM -SHRA OVC015
      TEMPO 0615/0619 4SM -RA
     FM062200 15013G18KT P6SM VCTS SCT025CB OVC035
     FM070300 15013KT 4SM -TSRA BKN025CB OVC050=

USA.gov is the U.S. government's official web portal to all federal, state and local government web resources and services.